Time;durP1;ratioP1;P1;durP2;ratioP2;P2;SDS_P1;SDS_P2;PMS_P1;PMS_P2;Temp;Humidity;BMP_temperature;BMP_pressure;BME280_temperature;BME280_humidity;BME280_pressure;Samples;Min_cycle;Max_cycle;Signal;HPM_P1;HPM_P2
2022/10/18 00:00:55;;;;;;;15.02;13.35;;;;;;;13.49;99.54;100538.00;5012343;28;20065;-85
2022/10/18 00:03:21;;;;;;;16.05;13.20;;;;;;;13.46;99.54;100530.25;5010376;28;20028;-86
2022/10/18 00:05:47;;;;;;;16.42;12.85;;;;;;;13.43;99.95;100526.00;5010668;28;20022;-85
2022/10/18 00:08:12;;;;;;;14.85;12.68;;;;;;;13.43;99.54;100530.41;5011591;28;20029;-86
2022/10/18 00:10:38;;;;;;;16.13;12.40;;;;;;;13.39;99.77;100519.22;5012706;28;20026;-86
2022/10/18 00:13:03;;;;;;;16.27;12.45;;;;;;;13.31;100.00;100504.75;5014276;28;20488;-85
2022/10/18 00:15:28;;;;;;;16.38;12.93;;;;;;;13.40;99.73;100520.94;5015504;28;20369;-85
2022/10/18 00:17:54;;;;;;;17.38;13.18;;;;;;;13.38;99.47;100525.38;5014355;28;20022;-86
2022/10/18 00:20:19;;;;;;;13.25;11.80;;;;;;;13.34;99.81;100529.03;5014010;28;20029;-85
2022/10/18 00:22:44;;;;;;;16.92;12.48;;;;;;;13.30;99.64;100519.63;5015503;28;20026;-86
2022/10/18 00:25:10;;;;;;;16.33;12.45;;;;;;;13.29;99.79;100522.31;5015101;28;20044;-85
2022/10/18 00:27:36;;;;;;;18.17;12.63;;;;;;;13.21;100.00;100522.59;5015488;28;20060;-86
2022/10/18 00:30:01;;;;;;;15.15;12.77;;;;;;;13.12;100.00;100509.94;5013934;28;20164;-85
2022/10/18 00:32:27;;;;;;;15.75;12.90;;;;;;;13.14;100.00;100522.00;5014083;28;20458;-85
2022/10/18 00:34:52;;;;;;;14.57;12.02;;;;;;;13.07;100.00;100517.13;5015275;28;20024;-85
2022/10/18 00:37:17;;;;;;;15.32;12.48;;;;;;;13.08;100.00;100524.91;5013608;28;20350;-85
2022/10/18 00:39:43;;;;;;;14.40;12.68;;;;;;;13.04;100.00;100523.34;5015139;28;20022;-86
2022/10/18 00:42:20;;;;;;;19.00;13.85;;;;;;;13.03;100.00;100521.66;5015022;28;20044;-85
2022/10/18 00:44:45;;;;;;;16.42;13.20;;;;;;;12.99;100.00;100525.31;5014997;28;20369;-86
2022/10/18 00:47:14;;;;;;;14.98;13.38;;;;;;;12.94;100.00;100522.03;5014888;28;20032;-86
2022/10/18 00:49:43;;;;;;;20.30;13.32;;;;;;;12.85;100.00;100502.38;5015081;28;20022;-86
2022/10/18 00:52:24;;;;;;;16.02;13.32;;;;;;;12.85;100.00;100502.38;5013401;28;20065;-86
2022/10/18 00:54:51;;;;;;;17.20;13.98;;;;;;;12.83;100.00;100509.41;5014953;28;20022;-86
2022/10/18 00:57:17;;;;;;;17.33;14.00;;;;;;;12.76;100.00;100496.66;5014956;28;20029;-86
2022/10/18 00:59:44;;;;;;;18.50;13.48;;;;;;;12.82;100.00;100504.25;5014829;28;20024;-86
2022/10/18 01:02:10;;;;;;;18.00;13.93;;;;;;;12.78;100.00;100503.53;5014808;28;20034;-86
2022/10/18 01:04:35;;;;;;;14.07;12.57;;;;;;;12.71;100.00;100500.31;5014686;28;20033;-86
2022/10/18 01:07:12;;;;;;;14.88;12.60;;;;;;;12.77;100.00;100500.97;5015009;28;20049;-86
2022/10/18 01:09:44;;;;;;;14.75;13.13;;;;;;;12.61;100.00;100479.88;5015089;28;20030;-86
2022/10/18 01:12:44;;;;;;;14.55;13.02;;;;;;;12.74;100.00;100501.97;5014541;28;20029;-85
2022/10/18 01:15:24;;;;;;;14.98;12.52;;;;;;;12.68;100.00;100502.19;5013052;28;20021;-85
2022/10/18 01:18:19;;;;;;;18.65;13.15;;;;;;;12.58;100.00;100488.66;5014652;28;20116;-85
2022/10/18 01:21:15;;;;;;;14.50;13.00;;;;;;;12.60;100.00;100505.16;5014516;28;20057;-85
2022/10/18 01:24:02;;;;;;;17.98;13.85;;;;;;;12.56;100.00;100497.50;5012286;28;20163;-85
2022/10/18 01:27:03;;;;;;;18.13;14.23;;;;;;;12.51;100.00;100497.66;5014324;28;20092;-85
2022/10/18 01:29:37;;;;;;;19.48;14.15;;;;;;;12.52;100.00;100512.47;5014229;28;20408;-85
2022/10/18 01:32:10;;;;;;;18.33;13.73;;;;;;;12.39;100.00;100488.59;5012944;28;20042;-86
2022/10/18 01:34:38;;;;;;;16.15;13.15;;;;;;;12.47;100.00;100506.53;5014232;28;20025;-85
2022/10/18 01:37:09;;;;;;;19.42;14.20;;;;;;;12.45;100.00;100504.00;5013886;28;20065;-86
2022/10/18 01:39:38;;;;;;;17.30;13.73;;;;;;;12.43;100.00;100497.13;5011392;28;20037;-86
2022/10/18 01:42:09;;;;;;;16.83;13.65;;;;;;;12.37;100.00;100486.94;5011245;28;20429;-85
2022/10/18 01:44:37;;;;;;;16.83;14.27;;;;;;;12.34;100.00;100480.06;5011535;28;20131;-86
2022/10/18 01:47:05;;;;;;;18.70;13.80;;;;;;;12.34;100.00;100489.66;5011567;28;20030;-86
2022/10/18 01:49:32;;;;;;;16.75;13.85;;;;;;;12.26;100.00;100479.53;4994967;28;20193;-86
2022/10/18 01:51:57;;;;;;;16.13;13.77;;;;;;;12.28;100.00;100476.88;5011420;28;20030;-85
2022/10/18 01:54:29;;;;;;;19.00;13.15;;;;;;;12.24;100.00;100477.00;4994532;28;20033;-86
2022/10/18 01:57:28;;;;;;;17.13;13.18;;;;;;;12.26;100.00;100492.59;5011369;28;20109;-86
2022/10/18 02:00:00;;;;;;;14.95;13.02;;;;;;;12.23;100.00;100479.66;4991742;28;20497;-85
2022/10/18 02:02:28;;;;;;;14.63;12.88;;;;;;;12.23;100.00;100482.28;4975100;28;20474;-86
2022/10/18 02:05:00;;;;;;;19.45;14.05;;;;;;;12.21;100.00;100481.47;4975101;28;20526;-86
2022/10/18 02:07:40;;;;;;;18.13;13.77;;;;;;;12.17;100.00;100478.13;4991355;28;20030;-86
2022/10/18 02:10:45;;;;;;;14.65;12.98;;;;;;;12.16;100.00;100486.03;4997154;28;20049;-86
2022/10/18 02:13:15;;;;;;;14.38;12.90;;;;;;;12.05;100.00;100465.59;4952619;29;20029;-85
2022/10/18 02:15:45;;;;;;;17.30;12.65;;;;;;;12.04;100.00;100468.25;4952616;28;20495;-85
2022/10/18 02:18:17;;;;;;;14.17;12.43;;;;;;;12.08;100.00;100488.09;4952503;28;20095;-85
2022/10/18 02:20:45;;;;;;;14.95;12.90;;;;;;;11.98;100.00;100467.59;4952574;28;20101;-86
2022/10/18 02:23:13;;;;;;;15.55;13.13;;;;;;;12.02;100.00;100481.38;4936250;29;20031;-85
2022/10/18 02:25:39;;;;;;;16.67;13.63;;;;;;;11.95;100.00;100474.69;4952553;29;20027;-85
2022/10/18 02:28:04;;;;;;;15.13;12.82;;;;;;;11.95;100.00;100472.91;4936133;29;20103;-85
2022/10/18 02:31:17;;;;;;;18.92;13.70;;;;;;;11.94;100.00;100476.44;4952159;29;20495;-85
2022/10/18 02:33:52;;;;;;;16.00;13.32;;;;;;;11.94;100.00;100466.00;4913904;29;20043;-85
2022/10/18 02:36:26;;;;;;;16.23;13.25;;;;;;;11.98;100.00;100479.78;4913869;29;20611;-85
2022/10/18 02:38:55;;;;;;;15.63;13.40;;;;;;;11.97;100.00;100478.09;4898258;29;20036;-85
2022/10/18 02:41:23;;;;;;;14.07;12.48;;;;;;;11.94;100.00;100480.81;4913983;29;20036;-86
2022/10/18 02:43:49;;;;;;;14.55;12.93;;;;;;;11.89;100.00;100478.38;4913971;29;20429;-85
2022/10/18 02:46:14;;;;;;;15.50;13.27;;;;;;;11.80;100.00;100470.88;4919563;29;20043;-85
2022/10/18 02:48:40;;;;;;;15.77;12.50;;;;;;;11.87;100.00;100481.97;4951973;28;20114;-85
2022/10/18 02:51:05;;;;;;;16.15;12.82;;;;;;;11.79;100.00;100471.78;4952002;28;20035;-86
2022/10/18 02:53:30;;;;;;;17.67;14.52;;;;;;;11.85;100.00;100500.31;4952107;29;20035;-86
2022/10/18 02:55:55;;;;;;;15.07;12.90;;;;;;;11.75;100.00;100478.03;4951960;28;20037;-86
2022/10/18 02:58:21;;;;;;;15.57;13.52;;;;;;;11.82;100.00;100491.69;4951723;29;20035;-86
2022/10/18 03:00:49;;;;;;;17.77;13.00;;;;;;;11.80;100.00;100489.16;4951924;29;20115;-86
2022/10/18 03:03:14;;;;;;;18.73;14.45;;;;;;;11.72;100.00;100488.59;4951449;29;20070;-85
2022/10/18 03:05:39;;;;;;;15.90;12.65;;;;;;;11.79;100.00;100497.03;4952188;29;20027;-85
2022/10/18 03:08:05;;;;;;;19.30;14.82;;;;;;;11.76;100.00;100487.56;4951977;29;20082;-85
2022/10/18 03:10:30;;;;;;;15.93;14.23;;;;;;;11.73;100.00;100488.53;4977296;28;20037;-86
2022/10/18 03:12:55;;;;;;;16.13;14.43;;;;;;;11.65;100.00;100489.72;5012535;28;20026;-85
2022/10/18 03:15:21;;;;;;;17.85;14.00;;;;;;;11.67;100.00;100498.34;5012086;28;20018;-86
2022/10/18 03:17:46;;;;;;;19.67;14.30;;;;;;;11.70;100.00;100503.44;5011075;28;20029;-85
2022/10/18 03:20:12;;;;;;;19.08;14.15;;;;;;;11.70;100.00;100511.28;5012373;28;20022;-86
2022/10/18 03:22:38;;;;;;;18.73;14.90;;;;;;;11.62;100.00;100497.66;5012480;28;20292;-86
2022/10/18 03:25:03;;;;;;;16.02;14.02;;;;;;;11.61;100.00;100514.22;5012395;28;20329;-86
2022/10/18 03:27:29;;;;;;;21.55;15.23;;;;;;;11.58;100.00;100509.97;5011770;28;20390;-86
2022/10/18 03:29:54;;;;;;;18.42;14.82;;;;;;;11.57;100.00;100499.59;5012317;28;20036;-86
2022/10/18 03:32:19;;;;;;;17.40;15.35;;;;;;;11.55;100.00;100509.25;5010674;28;20109;-86
2022/10/18 03:34:45;;;;;;;20.38;16.70;;;;;;;11.48;100.00;100495.56;5011213;28;20041;-86
2022/10/18 03:37:10;;;;;;;18.10;15.70;;;;;;;11.53;100.00;100508.44;5012270;28;20022;-87
2022/10/18 03:39:35;;;;;;;23.67;17.42;;;;;;;11.38;100.00;100486.41;5012076;28;20041;-85
2022/10/18 03:42:01;;;;;;;22.90;17.23;;;;;;;11.52;100.00;100515.44;5010866;28;20033;-85
2022/10/18 03:44:26;;;;;;;21.60;17.55;;;;;;;11.52;100.00;100519.78;5011822;28;20026;-85
2022/10/18 03:46:51;;;;;;;24.35;17.00;;;;;;;11.48;100.00;100522.50;5014758;28;20097;-85
2022/10/18 03:49:16;;;;;;;20.85;16.98;;;;;;;11.42;100.00;100521.91;5014488;28;20056;-85
2022/10/18 03:51:42;;;;;;;18.63;16.63;;;;;;;11.41;100.00;100518.41;5016507;28;20065;-85
2022/10/18 03:54:07;;;;;;;19.85;17.45;;;;;;;11.41;100.00;100528.84;5015971;28;20033;-85
2022/10/18 03:56:32;;;;;;;18.88;16.98;;;;;;;11.23;100.00;100498.22;5015869;28;20025;-85
2022/10/18 03:58:58;;;;;;;19.00;15.95;;;;;;;11.32;100.00;100510.91;5014696;28;20038;-85
2022/10/18 04:01:23;;;;;;;19.08;16.92;;;;;;;11.43;100.00;100527.03;5015647;28;20021;-85
2022/10/18 04:03:48;;;;;;;21.85;16.60;;;;;;;11.42;100.00;100527.13;5016011;28;20018;-85
2022/10/18 04:06:14;;;;;;;19.63;15.95;;;;;;;11.38;100.00;100531.59;5015572;28;20109;-85
2022/10/18 04:08:39;;;;;;;19.20;16.42;;;;;;;11.34;100.00;100521.31;5015870;28;20101;-85
2022/10/18 04:11:10;;;;;;;17.67;15.77;;;;;;;11.37;100.00;100529.84;5015815;28;20060;-85
2022/10/18 04:13:36;;;;;;;18.60;15.88;;;;;;;11.32;100.00;100525.72;5014154;28;20029;-85
2022/10/18 04:16:02;;;;;;;20.20;15.90;;;;;;;11.35;100.00;100533.44;5015479;28;20030;-85
2022/10/18 04:18:27;;;;;;;18.80;14.68;;;;;;;11.38;100.00;100541.16;5015576;28;20053;-85
2022/10/18 04:20:52;;;;;;;24.98;16.27;;;;;;;11.29;100.00;100525.81;5014373;28;20117;-85
2022/10/18 04:23:18;;;;;;;18.95;15.57;;;;;;;11.26;100.00;100526.81;5015081;28;20014;-85
2022/10/18 04:25:43;;;;;;;21.83;16.60;;;;;;;11.25;100.00;100527.72;5015533;28;20369;-85
2022/10/18 04:28:08;;;;;;;21.33;16.70;;;;;;;11.27;100.00;100527.66;5013804;28;20037;-85
2022/10/18 04:30:34;;;;;;;20.55;16.45;;;;;;;11.30;100.00;100544.03;5015115;28;20076;-85
2022/10/18 04:32:59;;;;;;;21.90;16.75;;;;;;;11.28;100.00;100545.84;5013951;28;20080;-85
2022/10/18 04:35:26;;;;;;;21.77;16.80;;;;;;;11.19;100.00;100514.88;5015649;28;20468;-85
2022/10/18 04:37:52;;;;;;;22.95;16.35;;;;;;;11.27;100.00;100528.50;5015383;28;20045;-86
2022/10/18 04:40:18;;;;;;;24.65;17.13;;;;;;;11.22;100.00;100533.88;5014923;28;20034;-85
2022/10/18 04:42:44;;;;;;;27.35;19.00;;;;;;;11.26;100.00;100533.78;5013893;28;20354;-85
2022/10/18 04:45:09;;;;;;;22.15;17.80;;;;;;;11.27;100.00;100528.50;5015119;28;20345;-85
2022/10/18 04:47:35;;;;;;;21.63;16.63;;;;;;;11.22;100.00;100530.41;5015158;28;20037;-86
2022/10/18 04:50:00;;;;;;;32.08;20.70;;;;;;;11.28;100.00;100534.56;5015528;28;20105;-85
2022/10/18 04:52:25;;;;;;;32.10;21.55;;;;;;;11.19;100.00;100520.94;5014996;28;20052;-85
2022/10/18 04:54:51;;;;;;;32.30;21.45;;;;;;;11.20;100.00;100522.63;5013721;28;20026;-85
2022/10/18 04:57:16;;;;;;;36.90;23.27;;;;;;;11.16;100.00;100521.03;5013399;28;20021;-87
2022/10/18 04:59:42;;;;;;;34.45;22.75;;;;;;;11.22;100.00;100526.06;5013843;28;20022;-85
2022/10/18 05:02:07;;;;;;;41.33;23.75;;;;;;;11.17;100.00;100520.16;5013508;28;20172;-85
2022/10/18 05:04:33;;;;;;;44.10;26.23;;;;;;;11.21;100.00;100526.97;5014603;28;20028;-85
2022/10/18 05:06:58;;;;;;;39.35;23.90;;;;;;;11.21;100.00;100526.13;5014845;28;20068;-85
2022/10/18 05:09:24;;;;;;;35.50;24.02;;;;;;;11.16;100.00;100509.75;5013247;28;20030;-85
2022/10/18 05:11:49;;;;;;;37.08;22.80;;;;;;;11.20;100.00;100527.00;5014662;28;20029;-88
2022/10/18 05:14:15;;;;;;;33.60;23.10;;;;;;;11.21;100.00;100528.72;5014505;28;20453;-87
2022/10/18 05:16:40;;;;;;;33.53;21.58;;;;;;;11.20;100.00;100524.41;5014153;28;20476;-88
2022/10/18 05:19:06;;;;;;;28.08;20.05;;;;;;;11.21;100.00;100531.34;5013367;28;20093;-88
2022/10/18 05:21:32;;;;;;;32.55;21.15;;;;;;;11.18;100.00;100528.81;5014338;28;20386;-87
2022/10/18 05:23:57;;;;;;;33.33;21.23;;;;;;;11.15;100.00;100524.56;5013142;28;20112;-88
2022/10/18 05:26:22;;;;;;;27.17;20.73;;;;;;;11.12;100.00;100518.59;5012712;28;20045;-88
2022/10/18 05:28:49;;;;;;;28.55;19.98;;;;;;;11.06;100.00;100506.63;5012974;28;20052;-88
2022/10/18 05:31:14;;;;;;;27.13;21.10;;;;;;;11.15;100.00;100513.28;5012644;28;20457;-89
2022/10/18 05:33:40;;;;;;;25.13;19.23;;;;;;;11.14;100.00;100519.41;5012812;28;20028;-88
2022/10/18 05:36:06;;;;;;;28.25;20.58;;;;;;;11.16;100.00;100520.19;5013018;28;20083;-88
2022/10/18 05:38:31;;;;;;;28.67;20.75;;;;;;;11.19;100.00;100526.16;5012701;28;20465;-88
2022/10/18 05:40:57;;;;;;;31.20;20.55;;;;;;;11.20;100.00;100513.97;5013486;28;20022;-88
2022/10/18 05:43:27;;;;;;;23.95;20.02;;;;;;;11.19;100.00;100502.69;5012442;28;20018;-88
2022/10/18 05:45:52;;;;;;;24.27;19.42;;;;;;;11.28;100.00;100511.94;5012509;28;20144;-88
2022/10/18 05:48:18;;;;;;;26.17;20.60;;;;;;;11.28;100.00;100517.16;5012788;28;20552;-88
2022/10/18 05:50:44;;;;;;;22.73;18.60;;;;;;;11.36;100.00;100515.13;5012507;28;20030;-88
2022/10/18 05:53:09;;;;;;;30.00;19.77;;;;;;;11.37;100.00;100514.22;5012630;28;20112;-88
2022/10/18 05:55:35;;;;;;;26.40;19.92;;;;;;;11.47;100.00;100514.75;5013742;28;20029;-88
2022/10/18 05:58:01;;;;;;;29.92;20.02;;;;;;;11.34;100.00;100488.25;5012447;28;20018;-88
2022/10/18 06:00:27;;;;;;;28.40;19.83;;;;;;;11.59;100.00;100513.44;5013346;28;20497;-88
2022/10/18 06:02:52;;;;;;;28.50;19.75;;;;;;;11.73;100.00;100519.84;5012607;28;20104;-89
2022/10/18 06:05:17;;;;;;;24.35;18.80;;;;;;;11.94;100.00;100520.81;5012463;28;20025;-89
2022/10/18 06:07:43;;;;;;;28.83;18.95;;;;;;;12.08;100.00;100527.28;5012220;28;20025;-88
2022/10/18 06:10:08;;;;;;;29.10;18.95;;;;;;;12.13;100.00;100509.66;5012014;28;20021;-88
2022/10/18 06:12:34;;;;;;;26.50;18.73;;;;;;;12.33;100.00;100517.56;5013251;28;20428;-88
2022/10/18 06:14:59;;;;;;;28.95;18.80;;;;;;;12.50;100.00;100522.09;5011915;28;20022;-89
2022/10/18 06:17:24;;;;;;;26.83;18.50;;;;;;;12.61;100.00;100525.13;5012034;28;20034;-88
2022/10/18 06:19:50;;;;;;;26.08;18.70;;;;;;;12.80;100.00;100524.38;5012144;28;20377;-89
2022/10/18 06:22:15;;;;;;;21.52;18.25;;;;;;;12.94;100.00;100530.72;5012203;28;20109;-88
2022/10/18 06:24:40;;;;;;;24.45;18.08;;;;;;;12.96;100.00;100530.66;5011761;28;20382;-88
2022/10/18 06:27:08;;;;;;;28.00;20.50;;;;;;;12.98;100.00;100537.53;5011821;28;20045;-88
2022/10/18 06:29:38;;;;;;;31.40;20.80;;;;;;;12.97;100.00;100527.97;5011599;28;20531;-88
2022/10/18 06:32:05;;;;;;;29.80;20.35;;;;;;;13.06;100.00;100529.38;5012027;28;20022;-88
2022/10/18 06:34:31;;;;;;;28.17;20.25;;;;;;;13.07;100.00;100515.38;5011694;28;20038;-88
2022/10/18 06:36:56;;;;;;;24.02;19.33;;;;;;;13.10;100.00;100530.06;5011866;28;20026;-88
2022/10/18 06:39:21;;;;;;;25.90;19.70;;;;;;;13.13;100.00;100522.09;5011790;28;20025;-88
2022/10/18 06:41:47;;;;;;;25.20;19.35;;;;;;;13.20;100.00;100524.38;5011436;28;20436;-88
2022/10/18 06:44:13;;;;;;;28.17;19.77;;;;;;;13.31;100.00;100525.69;5011468;28;20084;-88
2022/10/18 06:46:43;;;;;;;30.02;19.30;;;;;;;13.47;100.00;100514.47;5012847;28;20021;-88
2022/10/18 06:49:09;;;;;;;31.93;21.63;;;;;;;13.72;100.00;100524.69;5011702;28;20087;-88
2022/10/18 06:51:34;;;;;;;32.03;21.60;;;;;;;14.13;100.00;100527.16;5011287;28;20272;-88
2022/10/18 06:54:00;;;;;;;31.60;21.15;;;;;;;14.59;100.00;100543.34;5011513;28;20473;-88
2022/10/18 06:56:25;;;;;;;29.23;21.55;;;;;;;14.76;100.00;100529.41;5009830;28;20073;-88
2022/10/18 06:58:50;;;;;;;27.38;20.65;;;;;;;14.92;98.94;100538.19;4993708;28;20058;-88
2022/10/18 07:01:17;;;;;;;22.38;17.20;;;;;;;15.43;97.61;100539.06;4993740;28;20065;-88
2022/10/18 07:03:44;;;;;;;23.17;17.90;;;;;;;15.82;94.65;100527.38;4993361;28;20030;-88
2022/10/18 07:06:11;;;;;;;19.88;16.42;;;;;;;15.97;93.48;100538.84;4993575;28;20045;-88
2022/10/18 07:08:38;;;;;;;24.25;16.33;;;;;;;16.06;92.61;100534.88;4993460;28;20465;-89
2022/10/18 07:11:04;;;;;;;20.02;15.98;;;;;;;16.46;91.31;100533.47;5009945;28;20038;-91
2022/10/18 07:13:30;;;;;;;17.67;15.27;;;;;;;16.78;88.60;100538.69;4993438;28;20393;-88
2022/10/18 07:16:04;;;;;;;20.77;15.98;;;;;;;16.60;87.63;100551.94;4993473;28;20030;-89
2022/10/18 07:18:35;;;;;;;20.20;16.27;;;;;;;16.44;88.13;100554.59;4993311;28;20048;-89
2022/10/18 07:21:05;;;;;;;21.58;16.10;;;;;;;16.45;88.51;100558.91;4992750;28;20052;-88
2022/10/18 07:23:33;;;;;;;21.52;16.73;;;;;;;16.45;88.10;100555.44;4993117;28;20056;-89
2022/10/18 07:25:58;;;;;;;26.98;20.55;;;;;;;16.35;87.86;100557.75;4993182;28;20053;-89
2022/10/18 07:28:23;;;;;;;21.85;17.90;;;;;;;16.23;88.73;100560.22;5009052;28;20061;-88
2022/10/18 07:30:49;;;;;;;20.83;17.25;;;;;;;16.14;89.18;100565.03;5010777;28;20496;-89
2022/10/18 07:33:14;;;;;;;23.40;18.15;;;;;;;16.05;89.09;100556.81;5010940;28;20063;-88
2022/10/18 07:35:39;;;;;;;21.60;17.23;;;;;;;16.29;88.99;100562.50;5010713;28;20116;-89
2022/10/18 07:38:05;;;;;;;17.85;14.80;;;;;;;16.56;88.80;100558.31;5010853;28;20056;-88
2022/10/18 07:40:30;;;;;;;16.88;14.55;;;;;;;16.83;87.36;100563.81;5010910;28;20087;-89
2022/10/18 07:42:55;;;;;;;18.83;14.32;;;;;;;16.96;86.52;100554.25;5010911;28;20014;-91
2022/10/18 07:45:21;;;;;;;18.88;12.82;;;;;;;17.08;85.55;100547.41;5012207;28;20029;-89
2022/10/18 07:47:46;;;;;;;14.57;11.68;;;;;;;17.20;84.54;100551.97;5010724;28;20022;-88
2022/10/18 07:50:11;;;;;;;18.52;11.98;;;;;;;17.34;84.31;100555.53;5010860;28;20116;-89
2022/10/18 07:52:37;;;;;;;17.38;11.57;;;;;;;17.49;83.93;100554.63;5010573;28;20059;-89
2022/10/18 07:55:02;;;;;;;17.35;10.90;;;;;;;17.69;83.08;100550.75;5012402;28;20034;-89
2022/10/18 07:57:28;;;;;;;12.88;11.20;;;;;;;17.89;81.95;100550.38;5011839;28;20022;-88
2022/10/18 07:59:55;;;;;;;13.38;10.88;;;;;;;18.11;81.88;100554.31;5011203;28;20113;-89
2022/10/18 08:02:23;;;;;;;17.17;11.05;;;;;;;18.16;80.98;100529.38;5010785;28;20030;-92
2022/10/18 08:04:48;;;;;;;18.25;11.43;;;;;;;18.45;80.45;100545.06;5010364;28;20029;-92
2022/10/18 08:07:13;;;;;;;13.68;11.23;;;;;;;18.67;78.66;100547.16;5010702;28;20138;-89
2022/10/18 08:09:39;;;;;;;13.85;11.70;;;;;;;18.83;78.41;100541.72;5010356;28;20032;-89
2022/10/18 08:12:04;;;;;;;15.68;11.90;;;;;;;18.74;78.22;100518.59;5010773;28;20053;-89
2022/10/18 08:14:30;;;;;;;16.02;11.82;;;;;;;19.07;77.85;100540.09;5011497;28;20029;-89
2022/10/18 08:16:55;;;;;;;13.70;11.30;;;;;;;19.22;77.93;100532.94;5010712;28;20020;-89
2022/10/18 08:19:21;;;;;;;17.08;11.82;;;;;;;19.24;77.27;100516.97;5010160;28;20062;-89
2022/10/18 08:21:46;;;;;;;16.05;11.30;;;;;;;19.23;77.19;100524.03;5000073;28;20049;-91
2022/10/18 08:24:11;;;;;;;11.63;10.32;;;;;;;19.15;77.69;100516.66;4999074;28;20049;-89
2022/10/18 08:26:37;;;;;;;14.30;11.32;;;;;;;19.05;77.58;100526.16;5012734;28;20068;-89
2022/10/18 08:29:02;;;;;;;12.35;10.32;;;;;;;19.03;77.44;100516.63;5023827;28;20456;-89
2022/10/18 08:31:28;;;;;;;11.35;10.15;;;;;;;19.01;77.80;100519.41;5022118;28;20037;-91
2022/10/18 08:33:55;;;;;;;14.05;10.00;;;;;;;19.01;77.72;100508.84;5028090;28;20107;-90
2022/10/18 08:36:21;;;;;;;14.52;10.98;;;;;;;19.08;77.77;100502.16;5019693;28;20124;-91
2022/10/18 08:38:48;;;;;;;12.63;10.32;;;;;;;19.16;78.15;100510.41;5035088;28;20556;-91
2022/10/18 08:41:44;;;;;;;12.20;10.18;;;;;;;19.29;78.43;100507.75;5017465;28;20026;-90
2022/10/18 08:44:22;;;;;;;13.13;11.45;;;;;;;19.42;78.00;100505.13;5012428;28;20504;-90
2022/10/18 08:47:01;;;;;;;22.02;12.02;;;;;;;19.41;77.49;100490.22;4995880;28;20044;-89
2022/10/18 08:49:44;;;;;;;14.23;11.25;;;;;;;19.58;77.20;100495.16;4997089;28;20424;-90
2022/10/18 08:52:22;;;;;;;15.68;10.95;;;;;;;19.67;77.22;100496.34;4996140;28;20030;-90
2022/10/18 08:55:21;;;;;;;12.20;10.88;;;;;;;19.67;77.48;100494.53;4995726;28;20602;-90
2022/10/18 08:57:48;;;;;;;13.90;11.93;;;;;;;19.74;77.71;100497.59;4988706;28;20342;-91
2022/10/18 09:00:16;;;;;;;17.45;11.38;;;;;;;19.72;77.87;100474.88;4992707;28;20038;-90
2022/10/18 09:02:56;;;;;;;13.18;11.73;;;;;;;19.90;77.63;100495.56;4995659;28;20033;-91
2022/10/18 09:05:32;;;;;;;15.82;12.07;;;;;;;19.96;77.30;100480.19;4995846;28;20030;-91
2022/10/18 09:08:39;;;;;;;13.30;11.85;;;;;;;20.08;77.16;100479.31;5012227;28;20117;-90
2022/10/18 09:11:09;;;;;;;15.95;12.05;;;;;;;20.08;77.19;100459.00;5012232;28;20037;-91
2022/10/18 09:13:50;;;;;;;12.18;10.90;;;;;;;20.03;77.16;100452.34;4995515;28;20049;-90
2022/10/18 09:16:49;;;;;;;15.25;12.75;;;;;;;19.92;77.93;100459.25;5010934;28;20030;-91
2022/10/18 09:19:29;;;;;;;14.10;11.48;;;;;;;19.79;78.48;100455.81;4953534;29;20046;-90
2022/10/18 09:22:04;;;;;;;14.57;11.65;;;;;;;19.71;78.60;100455.53;4937338;29;20128;-91
2022/10/18 09:24:35;;;;;;;15.38;12.55;;;;;;;19.62;78.87;100451.75;4953366;29;20092;-91
2022/10/18 09:27:09;;;;;;;15.30;12.48;;;;;;;19.56;78.85;100452.16;4953439;29;20055;-90
2022/10/18 09:30:01;;;;;;;13.45;12.05;;;;;;;19.49;79.15;100440.34;4937269;29;20507;-90
2022/10/18 09:32:44;;;;;;;16.63;11.95;;;;;;;19.57;79.90;100442.44;4953637;29;20089;-90
2022/10/18 09:35:16;;;;;;;14.65;12.57;;;;;;;19.63;79.57;100436.72;4953378;29;20483;-91
2022/10/18 09:37:42;;;;;;;19.98;11.90;;;;;;;19.70;79.07;100435.34;4952975;29;20380;-90
2022/10/18 09:40:17;;;;;;;14.05;11.50;;;;;;;19.78;79.13;100440.06;4937356;29;20817;-91
2022/10/18 09:42:49;;;;;;;19.30;12.30;;;;;;;19.79;79.06;100432.03;4952828;28;20035;-91
2022/10/18 09:45:29;;;;;;;15.88;12.27;;;;;;;19.84;79.21;100429.03;4952632;29;20181;-90
2022/10/18 09:48:12;;;;;;;14.95;11.68;;;;;;;19.81;78.54;100424.84;4936963;29;20035;-91
2022/10/18 09:50:44;;;;;;;15.13;11.68;;;;;;;19.78;79.29;100425.06;4952795;29;20122;-90
2022/10/18 09:53:34;;;;;;;18.77;12.18;;;;;;;19.80;79.50;100420.50;4937155;29;20034;-91
2022/10/18 09:56:05;;;;;;;16.75;12.40;;;;;;;19.72;79.32;100409.66;4995024;28;20376;-90
2022/10/18 09:58:46;;;;;;;15.07;12.35;;;;;;;19.68;79.43;100416.13;5015760;28;20365;-91
2022/10/18 10:01:13;;;;;;;;;;;;;;;19.59;79.88;100406.16;5015992;28;20072;-91
2022/10/18 10:03:40;;;;;;;15.32;12.63;;;;;;;19.46;80.35;100403.56;5015590;28;19913;-91
2022/10/18 10:06:11;;;;;;;18.48;12.82;;;;;;;19.42;80.73;100402.97;5015403;28;20536;-91
2022/10/18 10:08:41;;;;;;;13.77;11.45;;;;;;;19.37;80.92;100404.22;5015494;28;20018;-91
2022/10/18 10:11:32;;;;;;;16.70;11.90;;;;;;;19.39;81.28;100399.69;5033343;28;20539;-90
2022/10/18 10:14:08;;;;;;;15.02;12.48;;;;;;;19.37;81.79;100398.94;5032904;28;20025;-91
2022/10/18 10:16:42;;;;;;;19.05;13.07;;;;;;;19.31;81.55;100389.66;5015301;28;20025;-91
2022/10/18 10:19:19;;;;;;;14.63;12.45;;;;;;;19.29;82.17;100393.34;5015480;28;20025;-91
2022/10/18 10:21:46;;;;;;;15.05;12.75;;;;;;;19.31;82.32;100381.72;5015217;28;20040;-91
2022/10/18 10:24:52;;;;;;;15.43;12.90;;;;;;;19.37;82.13;100370.72;5015274;28;20018;-91
2022/10/18 10:27:33;;;;;;;16.83;13.18;;;;;;;19.41;81.88;100366.91;4955134;28;20046;-91
2022/10/18 10:30:00;;;;;;;17.27;12.48;;;;;;;19.45;82.09;100378.94;4955342;28;20037;-91
2022/10/18 10:32:29;;;;;;;16.33;12.55;;;;;;;19.40;82.39;100378.44;4955449;28;20038;-91
2022/10/18 10:34:55;;;;;;;14.68;12.35;;;;;;;19.38;83.38;100377.72;4955176;28;20026;-91
2022/10/18 10:37:25;;;;;;;14.98;12.70;;;;;;;19.33;83.37;100378.97;4955309;28;20043;-91
2022/10/18 10:40:23;;;;;;;15.48;12.23;;;;;;;19.27;84.20;100374.97;4955152;28;20026;-91
2022/10/18 10:43:17;;;;;;;19.00;13.45;;;;;;;19.20;84.24;100377.19;4955187;28;20478;-91
2022/10/18 10:46:02;;;;;;;18.08;14.13;;;;;;;19.13;84.45;100380.38;4916699;29;20164;-92
2022/10/18 10:48:32;;;;;;;16.75;12.70;;;;;;;19.11;84.71;100379.66;4933428;29;20027;-91
2022/10/18 10:51:07;;;;;;;14.35;12.68;;;;;;;19.11;84.92;100363.81;4916813;29;20047;-91
2022/10/18 10:53:40;;;;;;;13.90;12.43;;;;;;;19.10;85.47;100367.41;4916975;29;20059;-91
2022/10/18 10:56:15;;;;;;;17.83;13.88;;;;;;;19.12;85.90;100357.56;4932533;29;20036;-91
2022/10/18 10:58:41;;;;;;;23.20;15.60;;;;;;;19.13;86.37;100367.19;4935840;28;20085;-91
2022/10/18 11:01:20;;;;;;;17.23;13.93;;;;;;;19.07;86.39;100357.06;4942573;28;20050;-90
2022/10/18 11:03:47;;;;;;;17.70;13.30;;;;;;;19.06;86.72;100352.75;4974387;28;20532;-90
2022/10/18 11:06:45;;;;;;;19.63;13.70;;;;;;;19.02;87.13;100348.63;4973415;28;20149;-91
2022/10/18 11:09:59;;;;;;;13.45;11.80;;;;;;;19.07;86.96;100349.97;4990566;28;20239;-91
2022/10/18 11:12:32;;;;;;;17.00;12.80;;;;;;;19.10;86.80;100346.28;4856827;29;20044;-91
2022/10/18 11:15:08;;;;;;;15.60;12.57;;;;;;;19.14;87.04;100356.53;4856812;29;20493;-91
2022/10/18 11:17:58;;;;;;;15.07;12.18;;;;;;;19.11;87.15;100343.53;4841830;29;20330;-91